createdAt,value
2023-04-10T00:00:13.567Z,26.48
2023-04-10T00:01:13.583Z,26.48
2023-04-10T00:02:13.679Z,26.44
2023-04-10T00:03:13.786Z,26.46
2023-04-10T00:04:13.705Z,26.48
2023-04-10T00:05:13.608Z,26.46
2023-04-10T00:06:13.597Z,26.44
2023-04-10T00:07:13.607Z,26.44
2023-04-10T00:08:13.638Z,26.45
2023-04-10T00:09:13.639Z,26.46
2023-04-10T00:10:13.657Z,26.48
2023-04-10T00:11:13.655Z,26.37
2023-04-10T00:12:13.669Z,26.40
2023-04-10T00:13:13.729Z,26.37
2023-04-10T00:14:13.685Z,26.37
2023-04-10T00:15:13.694Z,26.40
2023-04-10T00:16:13.728Z,26.35
2023-04-10T00:17:13.706Z,26.36
2023-04-10T00:18:13.709Z,26.35
2023-04-10T00:19:13.726Z,26.35
2023-04-10T00:20:13.732Z,26.32
2023-04-10T00:21:13.742Z,26.31
2023-04-10T00:22:13.754Z,26.28
2023-04-10T00:23:13.751Z,26.28
2023-04-10T00:24:13.791Z,26.31
2023-04-10T00:25:13.825Z,26.26
2023-04-10T00:26:13.870Z,26.22
2023-04-10T00:27:13.909Z,26.27
2023-04-10T00:28:13.953Z,26.19
2023-04-10T00:29:14.683Z,26.26
2023-04-10T00:30:14.040Z,26.25
2023-04-10T00:31:14.096Z,26.21
2023-04-10T00:32:14.165Z,26.25
2023-04-10T00:33:14.153Z,26.21
2023-04-10T00:34:14.292Z,26.21
2023-04-10T00:35:14.224Z,26.21
2023-04-10T00:36:14.325Z,26.19
2023-04-10T00:37:14.316Z,26.18
2023-04-10T00:38:14.345Z,26.13
2023-04-10T00:39:14.385Z,26.16
2023-04-10T00:40:14.421Z,26.18
2023-04-10T00:41:14.467Z,26.19
2023-04-10T00:42:14.509Z,26.12
2023-04-10T00:43:14.533Z,26.13
2023-04-10T00:44:14.574Z,26.14
2023-04-10T00:45:14.647Z,26.13
2023-04-10T00:46:14.732Z,26.13
2023-04-10T00:47:14.675Z,26.16
2023-04-10T00:48:14.718Z,26.14
2023-04-10T00:49:14.762Z,26.13
2023-04-10T00:50:14.824Z,26.14
2023-04-10T00:51:14.849Z,26.14
2023-04-10T00:52:14.883Z,26.13
2023-04-10T00:53:14.966Z,26.14
2023-04-10T00:54:14.962Z,26.12
2023-04-10T00:55:15.004Z,26.12
2023-04-10T00:56:15.073Z,26.10
2023-04-10T00:57:15.096Z,26.13
2023-04-10T00:58:15.141Z,26.12
2023-04-10T00:59:15.181Z,26.09
2023-04-10T01:00:15.227Z,26.16
2023-04-10T01:01:15.334Z,26.13
2023-04-10T01:02:15.387Z,26.13
2023-04-10T01:03:15.608Z,26.10
2023-04-10T01:04:15.525Z,26.09
2023-04-10T01:05:15.507Z,26.09
2023-04-10T01:06:15.476Z,26.09
2023-04-10T01:07:15.515Z,26.08
2023-04-10T01:08:15.553Z,26.10
2023-04-10T01:09:15.592Z,26.05
2023-04-10T01:10:15.683Z,26.04
2023-04-10T01:11:15.670Z,26.05
2023-04-10T01:12:15.747Z,26.05
2023-04-10T01:13:15.756Z,26.06
2023-04-10T01:14:15.828Z,26.09
2023-04-10T01:15:15.832Z,26.07
2023-04-10T01:16:15.890Z,26.09
2023-04-10T01:17:15.942Z,26.09
2023-04-10T01:18:15.957Z,26.08
2023-04-10T01:19:16.001Z,26.09
2023-04-10T01:20:16.049Z,26.06
2023-04-10T01:21:16.092Z,26.07
2023-04-10T01:22:16.133Z,26.02
2023-04-10T01:23:16.174Z,26.08
2023-04-10T01:24:16.212Z,26.09
2023-04-10T01:25:16.277Z,26.08
2023-04-10T01:26:16.311Z,26.08
2023-04-10T01:27:16.366Z,26.04
2023-04-10T01:28:16.396Z,26.04
2023-04-10T01:29:16.444Z,26.08
2023-04-10T01:30:16.488Z,26.04
2023-04-10T01:31:16.544Z,26.07
2023-04-10T01:32:16.569Z,26.09
2023-04-10T01:33:16.643Z,25.98
2023-04-10T01:34:16.711Z,26.04
2023-04-10T01:35:16.705Z,26.04
2023-04-10T01:36:16.740Z,26.05
2023-04-10T01:37:16.781Z,26.05
2023-04-10T01:38:16.824Z,26.01
2023-04-10T01:39:16.867Z,26.04
2023-04-10T01:40:16.920Z,26.05
2023-04-10T01:41:16.979Z,26.05
2023-04-10T01:42:17.010Z,26.04
2023-04-10T01:43:17.054Z,26.04
2023-04-10T01:44:17.081Z,26.04
2023-04-10T01:45:17.126Z,26.00
2023-04-10T01:46:17.234Z,26.07
2023-04-10T01:47:17.209Z,26.05
2023-04-10T01:48:17.257Z,26.08
2023-04-10T01:49:17.316Z,26.05
2023-04-10T01:50:17.340Z,26.05
2023-04-10T01:51:17.376Z,26.08
2023-04-10T01:52:17.514Z,26.09
2023-04-10T01:53:17.455Z,26.00
2023-04-10T01:54:17.515Z,26.04
2023-04-10T01:55:17.541Z,26.05
2023-04-10T01:56:17.584Z,26.01
2023-04-10T01:57:17.650Z,26.03
2023-04-10T01:58:17.667Z,26.01
2023-04-10T01:59:17.705Z,26.05
2023-04-10T02:00:17.830Z,26.05
2023-04-10T02:01:28.412Z,26.04
2023-04-10T02:02:17.852Z,26.02
2023-04-10T02:03:17.918Z,26.00
2023-04-10T02:04:17.872Z,26.01
2023-04-10T02:05:17.850Z,26.01
2023-04-10T02:06:17.819Z,26.00
2023-04-10T02:07:17.816Z,26.03
2023-04-10T02:08:17.825Z,25.98
2023-04-10T02:09:17.837Z,26.01
2023-04-10T02:10:17.841Z,25.97
2023-04-10T02:11:17.843Z,25.97
2023-04-10T02:12:17.852Z,25.98
2023-04-10T02:13:17.852Z,25.98
2023-04-10T02:14:17.858Z,26.03
2023-04-10T02:15:17.856Z,25.97
2023-04-10T02:16:17.899Z,25.96
2023-04-10T02:17:17.866Z,25.97
2023-04-10T02:18:17.888Z,25.98
2023-04-10T02:19:17.896Z,25.97
2023-04-10T02:20:17.885Z,26.00
2023-04-10T02:21:17.917Z,25.94
2023-04-10T02:22:17.903Z,25.98
2023-04-10T02:23:17.905Z,25.97
2023-04-10T02:24:17.922Z,25.95
2023-04-10T02:25:17.925Z,26.00
2023-04-10T02:26:17.941Z,25.96
2023-04-10T02:27:17.946Z,26.03
2023-04-10T02:28:17.949Z,25.94
2023-04-10T02:29:17.958Z,26.00
2023-04-10T02:30:17.963Z,25.97
2023-04-10T02:31:17.982Z,25.97
2023-04-10T02:32:17.971Z,25.96
2023-04-10T02:33:17.983Z,25.98
2023-04-10T02:34:17.996Z,25.94
2023-04-10T02:35:17.998Z,25.96
2023-04-10T02:36:18.038Z,25.97
2023-04-10T02:37:18.038Z,25.93
2023-04-10T02:38:18.011Z,25.90
2023-04-10T02:39:18.020Z,25.92
2023-04-10T02:40:18.025Z,25.96
2023-04-10T02:41:18.022Z,25.87
2023-04-10T02:42:18.040Z,25.97
2023-04-10T02:43:18.038Z,25.94
2023-04-10T02:44:18.074Z,25.94
2023-04-10T02:45:18.119Z,25.94
2023-04-10T02:46:18.174Z,26.01
2023-04-10T02:47:18.230Z,25.94
2023-04-10T02:48:18.225Z,25.95
2023-04-10T02:49:18.271Z,25.97
2023-04-10T02:50:18.303Z,25.96
2023-04-10T02:51:18.341Z,25.93
2023-04-10T02:52:18.382Z,25.92
2023-04-10T02:53:18.442Z,25.90
2023-04-10T02:54:18.461Z,25.97
2023-04-10T02:55:18.521Z,25.90
2023-04-10T02:56:18.547Z,25.93
2023-04-10T02:57:18.570Z,25.93
2023-04-10T02:58:18.610Z,25.96
2023-04-10T02:59:18.680Z,25.94
2023-04-10T03:00:18.708Z,25.95
2023-04-10T03:01:18.766Z,25.90
2023-04-10T03:02:18.866Z,25.87
2023-04-10T03:03:18.903Z,25.86
2023-04-10T03:04:18.930Z,25.89
2023-04-10T03:05:18.878Z,25.88
2023-04-10T03:06:18.914Z,25.89
2023-04-10T03:07:18.941Z,25.87
2023-04-10T03:08:18.997Z,25.90
2023-04-10T03:09:19.042Z,25.92
2023-04-10T03:10:19.045Z,25.92
2023-04-10T03:11:19.089Z,25.93
2023-04-10T03:12:19.101Z,25.91
2023-04-10T03:13:19.150Z,25.85
2023-04-10T03:14:19.177Z,25.90
2023-04-10T03:15:19.205Z,25.87
2023-04-10T03:16:19.342Z,25.85
2023-04-10T03:17:19.279Z,25.89
2023-04-10T03:18:19.303Z,25.86
2023-04-10T03:19:19.324Z,25.89
2023-04-10T03:20:19.361Z,25.87
2023-04-10T03:21:19.393Z,25.87
2023-04-10T03:22:19.420Z,25.81
2023-04-10T03:23:19.460Z,25.89
2023-04-10T03:24:19.483Z,25.85
2023-04-10T03:25:19.583Z,25.84
2023-04-10T03:26:19.546Z,25.86
2023-04-10T03:27:19.580Z,25.85
2023-04-10T03:28:19.605Z,25.86
2023-04-10T03:29:19.636Z,25.84
2023-04-10T03:30:19.677Z,25.86
2023-04-10T03:31:19.829Z,25.89
2023-04-10T03:32:19.748Z,25.87
2023-04-10T03:33:19.843Z,25.92
2023-04-10T03:34:19.823Z,25.87
2023-04-10T03:35:19.865Z,25.85
2023-04-10T03:36:19.920Z,25.85
2023-04-10T03:37:19.936Z,25.86
2023-04-10T03:38:19.963Z,25.85
2023-04-10T03:39:19.997Z,25.85
2023-04-10T03:40:20.048Z,25.86
2023-04-10T03:41:20.102Z,25.85
2023-04-10T03:42:20.125Z,25.84
2023-04-10T03:43:20.171Z,25.84
2023-04-10T03:44:20.208Z,25.87
2023-04-10T03:45:20.229Z,25.86
2023-04-10T03:46:20.302Z,25.84
2023-04-10T03:47:20.371Z,25.84
2023-04-10T03:48:20.362Z,25.81
2023-04-10T03:49:20.380Z,25.84
2023-04-10T03:50:20.442Z,25.86
2023-04-10T03:51:20.467Z,25.85
2023-04-10T03:52:20.514Z,25.84
2023-04-10T03:53:20.532Z,25.86
2023-04-10T03:54:20.552Z,25.81
2023-04-10T03:55:20.583Z,25.78
2023-04-10T03:56:20.614Z,25.84
2023-04-10T03:57:20.664Z,25.81
2023-04-10T03:58:20.672Z,25.84
2023-04-10T03:59:24.290Z,25.82
2023-04-10T04:00:20.706Z,25.82
2023-04-10T04:01:20.758Z,25.78
2023-04-10T04:02:20.932Z,25.84
2023-04-10T04:03:20.844Z,25.80
2023-04-10T04:04:20.793Z,25.81
2023-04-10T04:05:20.716Z,25.78
2023-04-10T04:06:20.724Z,25.85
2023-04-10T04:07:20.730Z,25.78
2023-04-10T04:08:20.739Z,25.73
2023-04-10T04:09:20.748Z,25.77
2023-04-10T04:10:20.739Z,25.82
2023-04-10T04:11:20.740Z,25.79
2023-04-10T04:12:20.744Z,25.79
2023-04-10T04:13:20.789Z,25.78
2023-04-10T04:14:20.760Z,25.80
2023-04-10T04:15:20.773Z,25.77
2023-04-10T04:16:20.787Z,25.78
2023-04-10T04:17:20.854Z,25.78
2023-04-10T04:18:20.821Z,25.84
2023-04-10T04:19:20.814Z,25.82
2023-04-10T04:20:20.825Z,25.79
2023-04-10T04:21:20.841Z,25.78
2023-04-10T04:22:20.839Z,25.74
2023-04-10T04:23:20.844Z,25.79
2023-04-10T04:24:20.841Z,25.77
2023-04-10T04:25:20.851Z,25.84
2023-04-10T04:26:20.856Z,25.81
2023-04-10T04:27:20.868Z,25.74
2023-04-10T04:28:20.886Z,25.78
2023-04-10T04:29:20.924Z,25.82
2023-04-10T04:30:20.904Z,25.76
2023-04-10T04:31:20.973Z,25.76
2023-04-10T04:32:20.979Z,25.76
2023-04-10T04:33:20.920Z,25.82
2023-04-10T04:34:20.934Z,25.80
2023-04-10T04:35:20.940Z,25.70
2023-04-10T04:36:20.960Z,25.73
2023-04-10T04:37:20.953Z,25.71
2023-04-10T04:38:20.961Z,25.77
2023-04-10T04:39:20.971Z,25.78
2023-04-10T04:40:20.979Z,25.71
2023-04-10T04:41:20.999Z,25.74
2023-04-10T04:42:21.010Z,25.73
2023-04-10T04:43:21.008Z,25.74
2023-04-10T04:44:21.023Z,25.73
2023-04-10T04:45:21.061Z,25.73
2023-04-10T04:46:21.109Z,25.80
2023-04-10T04:47:21.166Z,25.70
2023-04-10T04:48:21.142Z,25.77
2023-04-10T04:49:21.185Z,25.71
2023-04-10T04:50:21.219Z,25.73
2023-04-10T04:51:21.253Z,25.74
2023-04-10T04:52:21.302Z,25.74
2023-04-10T04:53:21.336Z,25.76
2023-04-10T04:54:21.365Z,25.79
2023-04-10T04:55:21.415Z,25.73
2023-04-10T04:56:21.439Z,25.71
2023-04-10T04:57:21.461Z,25.74
2023-04-10T04:58:21.482Z,25.76
2023-04-10T04:59:21.527Z,25.76
2023-04-10T05:00:21.560Z,25.76
2023-04-10T05:01:21.649Z,25.71
2023-04-10T05:02:21.800Z,25.70
2023-04-10T05:03:21.934Z,25.73
2023-04-10T05:04:21.885Z,25.76
2023-04-10T05:05:21.717Z,25.67
2023-04-10T05:06:21.785Z,25.74
2023-04-10T05:07:21.792Z,25.74
2023-04-10T05:08:21.824Z,25.69
2023-04-10T05:09:21.867Z,25.70
2023-04-10T05:10:21.901Z,25.73
2023-04-10T05:11:21.911Z,25.72
2023-04-10T05:12:21.952Z,25.70
2023-04-10T05:13:21.999Z,25.70
2023-04-10T05:14:22.011Z,25.70
2023-04-10T05:15:22.045Z,25.73
2023-04-10T05:16:22.131Z,25.73
2023-04-10T05:17:22.193Z,25.70
2023-04-10T05:18:22.171Z,25.71
2023-04-10T05:19:22.175Z,25.71
2023-04-10T05:20:22.201Z,25.70
2023-04-10T05:21:22.209Z,25.65
2023-04-10T05:22:22.232Z,25.66
2023-04-10T05:23:22.259Z,25.66
2023-04-10T05:24:22.304Z,25.69
2023-04-10T05:25:22.355Z,25.66
2023-04-10T05:26:22.352Z,25.70
2023-04-10T05:27:22.381Z,25.68
2023-04-10T05:28:22.425Z,25.68
2023-04-10T05:29:22.443Z,25.69
2023-04-10T05:30:22.476Z,25.70
2023-04-10T05:31:22.511Z,25.69
2023-04-10T05:32:22.563Z,25.70
2023-04-10T05:33:22.588Z,25.65
2023-04-10T05:34:22.588Z,25.65
2023-04-10T05:35:22.620Z,25.66
2023-04-10T05:36:22.668Z,25.68
2023-04-10T05:37:22.690Z,25.69
2023-04-10T05:38:22.710Z,25.66
2023-04-10T05:39:22.741Z,25.69
2023-04-10T05:40:22.766Z,25.65
2023-04-10T05:41:22.820Z,25.66
2023-04-10T05:42:23.886Z,25.66
2023-04-10T05:43:22.869Z,25.68
2023-04-10T05:44:22.904Z,25.65
2023-04-10T05:45:22.915Z,25.63
2023-04-10T05:46:22.995Z,25.69
2023-04-10T05:47:23.083Z,25.68
2023-04-10T05:48:23.004Z,25.66
2023-04-10T05:49:23.068Z,25.65
2023-04-10T05:50:23.318Z,25.69
2023-04-10T05:51:23.108Z,25.63
2023-04-10T05:52:23.207Z,25.68
2023-04-10T05:53:23.162Z,25.63
2023-04-10T05:54:23.200Z,25.65
2023-04-10T05:55:23.220Z,25.63
2023-04-10T05:56:23.255Z,25.63
2023-04-10T05:57:23.279Z,25.66
2023-04-10T05:58:23.303Z,25.61
2023-04-10T05:59:23.336Z,25.62
2023-04-10T06:00:23.354Z,25.60
2023-04-10T06:01:23.398Z,25.57
2023-04-10T06:02:23.620Z,25.56
2023-04-10T06:03:23.588Z,25.60
2023-04-10T06:04:23.747Z,25.57
2023-04-10T06:05:23.576Z,25.60
2023-04-10T06:06:23.541Z,25.61
2023-04-10T06:07:23.568Z,25.60
2023-04-10T06:08:23.589Z,25.61
2023-04-10T06:09:23.634Z,25.56
2023-04-10T06:10:23.686Z,25.53
2023-04-10T06:11:23.712Z,25.53
2023-04-10T06:12:23.736Z,25.57
2023-04-10T06:13:23.772Z,25.54
2023-04-10T06:14:23.801Z,25.58
2023-04-10T06:15:23.839Z,25.50
2023-04-10T06:16:23.965Z,25.57
2023-04-10T06:17:23.939Z,25.52
2023-04-10T06:18:23.967Z,25.54
2023-04-10T06:19:23.999Z,25.57
2023-04-10T06:20:24.047Z,25.57
2023-04-10T06:21:24.097Z,25.61
2023-04-10T06:22:24.132Z,25.54
2023-04-10T06:23:24.135Z,25.60
2023-04-10T06:24:24.175Z,25.56
2023-04-10T06:25:24.214Z,25.64
2023-04-10T06:26:24.242Z,25.54
2023-04-10T06:27:24.288Z,25.56
2023-04-10T06:28:24.313Z,25.60
2023-04-10T06:29:24.345Z,25.54
2023-04-10T06:30:24.377Z,25.49
2023-04-10T06:31:24.481Z,25.54
2023-04-10T06:32:24.502Z,25.56
2023-04-10T06:33:26.346Z,25.54
2023-04-10T06:34:24.510Z,25.58
2023-04-10T06:35:24.702Z,25.54
2023-04-10T06:36:24.543Z,25.52
2023-04-10T06:37:24.573Z,25.53
2023-04-10T06:38:24.571Z,25.53
2023-04-10T06:39:24.576Z,25.48
2023-04-10T06:40:24.601Z,25.49
2023-04-10T06:41:24.604Z,25.48
2023-04-10T06:42:24.629Z,25.51
2023-04-10T06:43:24.640Z,25.48
2023-04-10T06:44:24.669Z,25.47
2023-04-10T06:45:24.667Z,25.46
2023-04-10T06:46:24.725Z,25.51
2023-04-10T06:47:24.726Z,25.43
2023-04-10T06:48:24.715Z,25.46
2023-04-10T06:49:24.718Z,25.43
2023-04-10T06:50:24.728Z,25.43
2023-04-10T06:51:24.734Z,25.46
2023-04-10T06:52:24.754Z,25.39
2023-04-10T06:53:24.796Z,25.39
2023-04-10T06:54:24.797Z,25.36
2023-04-10T06:55:24.808Z,25.43
2023-04-10T06:56:24.811Z,25.43
2023-04-10T06:57:24.822Z,25.37
2023-04-10T06:58:24.838Z,25.37
2023-04-10T06:59:24.850Z,25.41
2023-04-10T07:00:24.861Z,25.37
2023-04-10T07:01:26.038Z,25.40
2023-04-10T07:02:25.243Z,25.36
2023-04-10T07:03:25.113Z,25.36
2023-04-10T07:04:25.077Z,25.35
2023-04-10T07:05:25.109Z,25.32
2023-04-10T07:06:25.161Z,25.35
2023-04-10T07:07:25.184Z,25.36
2023-04-10T07:08:25.244Z,25.32
2023-04-10T07:09:25.314Z,25.33
2023-04-10T07:10:25.328Z,25.36
2023-04-10T07:11:25.344Z,25.27
2023-04-10T07:12:25.394Z,25.31
2023-04-10T07:13:25.429Z,25.32
2023-04-10T07:14:25.440Z,25.31
2023-04-10T07:15:25.471Z,25.32
2023-04-10T07:16:25.567Z,25.31
2023-04-10T07:17:25.573Z,25.34
2023-04-10T07:18:25.586Z,25.24
2023-04-10T07:19:25.629Z,25.31
2023-04-10T07:20:25.722Z,25.31
2023-04-10T07:21:25.729Z,25.25
2023-04-10T07:22:26.380Z,25.27
2023-04-10T07:23:25.809Z,25.29
2023-04-10T07:24:25.874Z,25.27
2023-04-10T07:25:26.004Z,25.30
2023-04-10T07:26:26.024Z,25.30
2023-04-10T07:27:26.097Z,25.22
2023-04-10T07:28:26.193Z,25.27
2023-04-10T07:29:26.271Z,25.30
2023-04-10T07:30:26.397Z,25.27
2023-04-10T07:31:26.478Z,25.22
2023-04-10T07:32:26.866Z,25.24
2023-04-10T07:33:26.590Z,25.23
2023-04-10T07:34:26.590Z,25.24
2023-04-10T07:35:26.659Z,25.25
2023-04-10T07:36:26.738Z,25.25
2023-04-10T07:37:26.809Z,25.21
2023-04-10T07:38:26.887Z,25.22
2023-04-10T07:39:26.956Z,25.15
2023-04-10T07:40:27.035Z,25.22
2023-04-10T07:41:27.121Z,25.18
2023-04-10T07:42:27.164Z,25.15
2023-04-10T07:43:27.233Z,25.18
2023-04-10T07:44:27.329Z,25.23
2023-04-10T07:45:27.432Z,25.14
2023-04-10T07:46:27.473Z,25.14
2023-04-10T07:47:27.569Z,25.15
2023-04-10T07:48:27.599Z,25.13
2023-04-10T07:49:27.677Z,25.11
2023-04-10T07:50:27.742Z,25.16
2023-04-10T07:51:27.808Z,25.12
2023-04-10T07:52:27.876Z,25.08
2023-04-10T07:53:27.943Z,25.11
2023-04-10T07:54:28.016Z,25.09
2023-04-10T07:55:28.081Z,25.08
2023-04-10T07:56:28.140Z,25.09
2023-04-10T07:57:28.248Z,25.09
2023-04-10T07:58:28.256Z,25.07
2023-04-10T07:59:28.333Z,25.08
2023-04-10T08:00:28.393Z,25.08
2023-04-10T08:01:28.454Z,25.08
2023-04-10T08:02:28.692Z,25.08
2023-04-10T08:03:28.697Z,25.02
2023-04-10T08:04:28.774Z,25.08
2023-04-10T08:05:28.730Z,25.06
2023-04-10T08:06:28.749Z,25.03
2023-04-10T08:07:28.796Z,25.02
2023-04-10T08:08:28.858Z,25.02
2023-04-10T08:09:28.939Z,25.06
2023-04-10T08:10:28.972Z,25.09
2023-04-10T08:11:29.050Z,25.07
2023-04-10T08:12:29.075Z,25.03
2023-04-10T08:13:29.154Z,25.06
2023-04-10T08:14:29.209Z,25.06
2023-04-10T08:15:29.254Z,25.06
2023-04-10T08:16:29.352Z,25.07
2023-04-10T08:17:29.363Z,25.06
2023-04-10T08:18:29.411Z,25.06
2023-04-10T08:19:29.463Z,25.05
2023-04-10T08:20:29.493Z,25.06
2023-04-10T08:21:29.559Z,25.04
2023-04-10T08:22:29.588Z,25.05
2023-04-10T08:23:29.644Z,25.02
2023-04-10T08:24:29.709Z,25.03
2023-04-10T08:25:29.716Z,25.01
2023-04-10T08:26:29.771Z,25.07
2023-04-10T08:27:29.793Z,25.05
2023-04-10T08:28:29.839Z,25.04
2023-04-10T08:29:29.898Z,25.01
2023-04-10T08:30:29.928Z,25.04
2023-04-10T08:31:30.092Z,25.03
2023-04-10T08:32:30.046Z,25.02
2023-04-10T08:33:30.014Z,25.03
2023-04-10T08:34:30.042Z,25.02
2023-04-10T08:35:30.073Z,25.03
2023-04-10T08:36:30.111Z,24.98
2023-04-10T08:37:30.148Z,24.99
2023-04-10T08:38:30.179Z,24.98
2023-04-10T08:39:30.219Z,25.00
2023-04-10T08:40:30.250Z,24.99
2023-04-10T08:41:30.276Z,24.97
2023-04-10T08:42:30.308Z,24.98
2023-04-10T08:43:30.348Z,24.95
2023-04-10T08:44:30.361Z,24.97
2023-04-10T08:45:30.519Z,24.94
2023-04-10T08:46:30.518Z,25.00
2023-04-10T08:47:30.468Z,25.00
2023-04-10T08:48:30.458Z,24.95
2023-04-10T08:49:30.489Z,24.96
2023-04-10T08:50:30.503Z,24.92
2023-04-10T08:51:30.532Z,24.96
2023-04-10T08:52:30.547Z,24.97
2023-04-10T08:53:30.572Z,24.95
2023-04-10T08:54:30.576Z,24.93
2023-04-10T08:55:30.594Z,24.92
2023-04-10T08:56:30.609Z,24.92
2023-04-10T08:57:30.625Z,24.95
2023-04-10T08:58:30.637Z,24.96
2023-04-10T08:59:30.654Z,24.96
2023-04-10T09:00:30.654Z,24.93
2023-04-10T09:01:30.724Z,24.94
2023-04-10T09:02:30.816Z,24.94
2023-04-10T09:03:30.940Z,24.95
2023-04-10T09:04:30.768Z,24.93
2023-04-10T09:05:30.686Z,24.94
2023-04-10T09:06:30.687Z,24.95
2023-04-10T09:07:30.683Z,24.91
2023-04-10T09:08:30.702Z,24.93
2023-04-10T09:09:30.704Z,24.93
2023-04-10T09:10:30.737Z,24.94
2023-04-10T09:11:30.740Z,24.98
2023-04-10T09:12:30.742Z,24.90
2023-04-10T09:13:30.745Z,24.93
2023-04-10T09:14:30.753Z,24.96
2023-04-10T09:15:30.759Z,24.93
2023-04-10T09:16:30.780Z,24.89
2023-04-10T09:17:30.849Z,24.87
2023-04-10T09:18:30.804Z,24.87
2023-04-10T09:19:30.828Z,24.87
2023-04-10T09:20:30.844Z,24.88
2023-04-10T09:21:30.880Z,24.88
2023-04-10T09:22:30.859Z,24.81
2023-04-10T09:23:30.885Z,24.83
2023-04-10T09:24:30.881Z,24.88
2023-04-10T09:25:30.890Z,24.85
2023-04-10T09:26:30.920Z,24.84
2023-04-10T09:27:30.949Z,24.85
2023-04-10T09:28:30.996Z,24.83
2023-04-10T09:29:31.043Z,24.84
2023-04-10T09:30:31.096Z,24.80
2023-04-10T09:31:31.167Z,24.84
2023-04-10T09:32:31.187Z,24.87
2023-04-10T09:33:31.224Z,24.83
2023-04-10T09:34:31.233Z,24.83
2023-04-10T09:35:31.225Z,24.84
2023-04-10T09:36:31.308Z,24.83
2023-04-10T09:37:31.311Z,24.82
2023-04-10T09:38:31.350Z,24.86
2023-04-10T09:39:31.387Z,24.86
2023-04-10T09:40:31.425Z,24.83
2023-04-10T09:41:31.494Z,24.85
2023-04-10T09:42:31.525Z,24.85
2023-04-10T09:43:31.579Z,24.85
2023-04-10T09:44:31.627Z,24.81
2023-04-10T09:45:31.640Z,24.85
2023-04-10T09:46:31.720Z,24.84
2023-04-10T09:47:31.791Z,24.85
2023-04-10T09:48:31.810Z,24.85
2023-04-10T09:49:31.887Z,24.85
2023-04-10T09:50:34.009Z,24.85
2023-04-10T09:51:31.969Z,24.85
2023-04-10T09:52:32.020Z,24.86
2023-04-10T09:53:32.091Z,24.90
2023-04-10T09:54:32.212Z,24.88
2023-04-10T09:55:32.225Z,24.86
2023-04-10T09:56:32.284Z,24.88
2023-04-10T09:57:32.361Z,24.88
2023-04-10T09:58:32.421Z,24.90
2023-04-10T09:59:32.488Z,24.89
2023-04-10T10:00:32.556Z,24.88
2023-04-10T10:01:32.638Z,24.89
2023-04-10T10:02:32.798Z,24.90
2023-04-10T10:03:32.813Z,24.88
2023-04-10T10:04:32.828Z,24.92
2023-04-10T10:05:32.896Z,24.92
2023-04-10T10:06:32.933Z,24.89
2023-04-10T10:07:32.996Z,24.91
2023-04-10T10:08:33.062Z,24.92
2023-04-10T10:09:33.128Z,24.88
2023-04-10T10:10:33.186Z,24.93
2023-04-10T10:11:33.301Z,24.90
2023-04-10T10:12:33.334Z,24.87
2023-04-10T10:13:33.435Z,24.96
2023-04-10T10:14:33.462Z,24.95
2023-04-10T10:15:33.546Z,24.91
2023-04-10T10:16:33.647Z,24.98
2023-04-10T10:17:33.720Z,24.91
2023-04-10T10:18:33.749Z,24.91
2023-04-10T10:19:33.825Z,24.93
2023-04-10T10:20:35.403Z,24.95
2023-04-10T10:21:33.904Z,24.96
2023-04-10T10:22:33.879Z,24.93
2023-04-10T10:23:33.877Z,24.96
2023-04-10T10:24:33.877Z,24.95
2023-04-10T10:25:33.894Z,24.94
2023-04-10T10:26:33.876Z,24.95
2023-04-10T10:27:33.861Z,24.94
2023-04-10T10:28:33.860Z,24.94
2023-04-10T10:29:33.868Z,24.94
2023-04-10T10:30:33.871Z,24.98
2023-04-10T10:31:33.889Z,24.98
2023-04-10T10:32:33.893Z,24.94
2023-04-10T10:33:33.842Z,24.96
2023-04-10T10:34:33.837Z,24.98
2023-04-10T10:35:33.829Z,24.99
2023-04-10T10:36:33.910Z,25.00
2023-04-10T10:37:33.853Z,24.98
2023-04-10T10:38:33.818Z,24.95
2023-04-10T10:39:33.822Z,25.00
2023-04-10T10:40:33.810Z,24.99
2023-04-10T10:41:33.827Z,24.99
2023-04-10T10:42:33.795Z,25.00
2023-04-10T10:43:33.801Z,25.03
2023-04-10T10:44:33.860Z,24.96
2023-04-10T10:45:33.957Z,25.00
2023-04-10T10:46:34.000Z,24.98
2023-04-10T10:47:34.103Z,25.04
2023-04-10T10:48:34.122Z,25.05
2023-04-10T10:49:34.191Z,25.05
2023-04-10T10:50:34.257Z,24.99
2023-04-10T10:51:34.326Z,25.00
2023-04-10T10:52:34.384Z,25.02
2023-04-10T10:53:34.478Z,25.04
2023-04-10T10:54:34.516Z,25.04
2023-04-10T10:55:34.563Z,25.00
2023-04-10T10:56:34.631Z,25.03
2023-04-10T10:57:34.684Z,25.02
2023-04-10T10:58:34.744Z,25.03
2023-04-10T10:59:34.806Z,25.05
2023-04-10T11:00:34.860Z,25.11
2023-04-10T11:01:34.980Z,25.04
2023-04-10T11:02:35.076Z,25.07
2023-04-10T11:03:35.160Z,25.06
2023-04-10T11:04:35.097Z,25.06
2023-04-10T11:05:35.162Z,25.02
2023-04-10T11:06:35.221Z,25.07
2023-04-10T11:07:35.284Z,25.05
2023-04-10T11:08:35.333Z,25.04
2023-04-10T11:09:35.408Z,25.07
2023-04-10T11:10:35.462Z,25.09
2023-04-10T11:11:35.498Z,25.05
2023-04-10T11:12:36.247Z,25.05
2023-04-10T11:13:35.554Z,25.09
2023-04-10T11:14:35.556Z,25.07
2023-04-10T11:15:35.542Z,25.09
2023-04-10T11:16:35.586Z,25.06
2023-04-10T11:17:35.565Z,25.09
2023-04-10T11:18:35.527Z,25.06
2023-04-10T11:19:35.525Z,25.10
2023-04-10T11:20:35.573Z,25.09
2023-04-10T11:21:35.518Z,25.11
2023-04-10T11:22:35.515Z,25.09
2023-04-10T11:23:35.500Z,25.09
2023-04-10T11:24:36.226Z,25.05
2023-04-10T11:25:35.496Z,25.11
2023-04-10T11:26:35.463Z,25.11
2023-04-10T11:27:35.455Z,25.11
2023-04-10T11:28:35.450Z,25.10
2023-04-10T11:29:35.441Z,25.11
2023-04-10T11:30:35.468Z,25.10
2023-04-10T11:31:35.420Z,25.14
2023-04-10T11:32:35.431Z,25.11
2023-04-10T11:33:35.389Z,25.11
2023-04-10T11:34:35.385Z,25.09
2023-04-10T11:35:35.431Z,25.14
2023-04-10T11:36:35.365Z,25.11
2023-04-10T11:37:35.378Z,25.14
2023-04-10T11:38:35.357Z,25.12
2023-04-10T11:39:35.336Z,25.09
2023-04-10T11:40:35.346Z,25.10
2023-04-10T11:41:35.385Z,25.08
2023-04-10T11:42:35.332Z,25.12
2023-04-10T11:43:35.367Z,25.10
2023-04-10T11:44:35.355Z,25.15
2023-04-10T11:45:35.309Z,25.12
2023-04-10T11:46:35.366Z,25.14
2023-04-10T11:47:35.310Z,25.12
2023-04-10T11:48:35.274Z,25.12
2023-04-10T11:49:35.265Z,25.12
2023-04-10T11:50:35.265Z,25.10
2023-04-10T11:51:35.245Z,25.12
2023-04-10T11:52:35.238Z,25.14
2023-04-10T11:53:35.238Z,25.12
2023-04-10T11:54:35.254Z,25.08
2023-04-10T11:55:35.260Z,25.15
2023-04-10T11:56:35.277Z,25.12
2023-04-10T11:57:35.319Z,25.14
2023-04-10T11:58:35.310Z,25.15
2023-04-10T11:59:35.356Z,25.16
2023-04-10T12:00:35.328Z,25.15
2023-04-10T12:01:35.436Z,25.16
2023-04-10T12:02:35.677Z,25.16
2023-04-10T12:03:35.617Z,25.20
2023-04-10T12:04:35.672Z,25.18
2023-04-10T12:05:35.466Z,25.19
2023-04-10T12:06:35.472Z,25.18
2023-04-10T12:07:35.489Z,25.23
2023-04-10T12:08:35.500Z,25.20
2023-04-10T12:09:35.535Z,25.19
2023-04-10T12:10:35.543Z,25.26
2023-04-10T12:11:35.557Z,25.20
2023-04-10T12:12:35.578Z,25.19
2023-04-10T12:13:35.610Z,25.20
2023-04-10T12:14:35.608Z,25.22
2023-04-10T12:15:35.648Z,25.19
2023-04-10T12:16:35.645Z,25.21
2023-04-10T12:17:35.676Z,25.22
2023-04-10T12:18:35.684Z,25.22
2023-04-10T12:19:35.721Z,25.25
2023-04-10T12:20:35.740Z,25.23
2023-04-10T12:21:35.813Z,25.24
2023-04-10T12:22:35.864Z,25.22
2023-04-10T12:23:35.923Z,25.28
2023-04-10T12:24:35.980Z,25.24
2023-04-10T12:25:36.020Z,25.26
2023-04-10T12:26:36.105Z,25.31
2023-04-10T12:27:36.103Z,25.32
2023-04-10T12:28:36.139Z,25.27
2023-04-10T12:29:36.200Z,25.30
2023-04-10T12:30:36.196Z,25.30
2023-04-10T12:31:36.324Z,25.25
2023-04-10T12:32:36.226Z,25.31
2023-04-10T12:33:36.273Z,25.30
2023-04-10T12:34:36.238Z,25.31
2023-04-10T12:35:36.249Z,25.30
2023-04-10T12:36:36.240Z,25.33
2023-04-10T12:37:36.219Z,25.27
2023-04-10T12:38:36.226Z,25.30
2023-04-10T12:39:36.234Z,25.35
2023-04-10T12:40:36.233Z,25.31
2023-04-10T12:41:36.231Z,25.30
2023-04-10T12:42:36.229Z,25.33
2023-04-10T12:43:36.224Z,25.34
2023-04-10T12:44:36.228Z,25.35
2023-04-10T12:45:36.279Z,25.36
2023-04-10T12:46:36.296Z,25.38
2023-04-10T12:47:36.242Z,25.35
2023-04-10T12:48:36.235Z,25.38
2023-04-10T12:49:36.232Z,25.36
2023-04-10T12:50:36.243Z,25.41
2023-04-10T12:51:36.236Z,25.40
2023-04-10T12:52:36.246Z,25.38